Time;durP1;ratioP1;P1;durP2;ratioP2;P2;SDS_P1;SDS_P2;PMS_P1;PMS_P2;Temp;Humidity;BMP_temperature;BMP_pressure;BME280_temperature;BME280_humidity;BME280_pressure;Samples;Min_cycle;Max_cycle;Signal;HPM_P1;HPM_P2
2021/04/04 00:06:00;;;;;;;25.77;4.85;;;;;;;;;;4627882;28;20224;-60
2021/04/04 00:08:26;;;;;;;23.83;4.37;;;;;;;;;;4234408;33;20483;-61
2021/04/04 00:10:53;;;;;;;24.05;3.58;;;;;;;;;;4228426;33;20122;-58
2021/04/04 00:13:19;;;;;;;13.73;4.03;;;;;;;;;;4207296;34;20109;-57
2021/04/04 00:15:45;;;;;;;6.78;2.00;;;;;;;;;;4219869;34;20120;-58
2021/04/04 00:18:11;;;;;;;5.18;3.92;;;;;;;;;;4220390;34;20113;-59
2021/04/04 00:20:37;;;;;;;13.32;3.80;;;;;;;;;;4220116;34;20232;-58
2021/04/04 00:23:03;;;;;;;22.13;2.53;;;;;;;;;;4220313;34;20136;-59
2021/04/04 00:25:29;;;;;;;2.65;1.55;;;;;;;;;;4219942;34;20217;-58
2021/04/04 00:27:56;;;;;;;2.87;2.05;;;;;;;;;;4219990;34;20630;-58
2021/04/04 00:30:22;;;;;;;15.88;5.07;;;;;;;;;;4219916;34;20140;-58
2021/04/04 00:32:48;;;;;;;12.88;5.87;;;;;;;;;;4220090;34;20606;-57
2021/04/04 00:35:16;;;;;;;14.30;5.10;;;;;;;;;;4219823;34;20125;-59
2021/04/04 00:37:42;;;;;;;7.82;4.30;;;;;;;;;;4219950;34;20525;-59
2021/04/04 00:40:17;;;;;;;1.45;1.23;;;;;;;;;;4219833;34;20114;-58
2021/04/04 00:42:43;;;;;;;12.00;6.00;;;;;;;;;;4220018;34;20105;-59
2021/04/04 00:45:29;;;;;;;5.43;3.62;;;;;;;;;;4219789;34;20136;-58
2021/04/04 00:47:55;;;;;;;1.65;1.45;;;;;;;;;;4219938;34;20624;-57
2021/04/04 00:50:26;;;;;;;4.00;2.95;;;;;;;;;;4219747;34;20177;-58
2021/04/04 00:52:52;;;;;;;1.67;1.48;;;;;;;;;;4219842;34;20108;-58
2021/04/04 00:55:18;;;;;;;6.03;1.62;;;;;;;;;;4219589;34;20098;-57
2021/04/04 00:57:44;;;;;;;3.40;2.58;;;;;;;;;;4219822;34;20136;-58
2021/04/04 01:00:12;;;;;;;1.83;1.67;;;;;;;;;;4219728;34;20121;-57
2021/04/04 01:02:38;;;;;;;7.37;5.57;;;;;;;;;;4220003;34;20461;-58
2021/04/04 01:05:05;;;;;;;5.55;2.60;;;;;;;;;;4219393;34;20205;-59
2021/04/04 01:07:34;;;;;;;9.07;4.78;;;;;;;;;;4218769;34;20250;-57
2021/04/04 01:10:03;;;;;;;5.15;3.10;;;;;;;;;;4219782;34;20496;-58
2021/04/04 01:12:48;;;;;;;4.45;2.10;;;;;;;;;;4195627;34;20101;-58
2021/04/04 01:15:20;;;;;;;5.40;3.33;;;;;;;;;;4195930;34;20149;-57
2021/04/04 01:17:47;;;;;;;2.87;2.00;;;;;;;;;;4195539;34;20450;-54
2021/04/04 01:20:18;;;;;;;3.65;1.85;;;;;;;;;;4206590;34;20129;-59
2021/04/04 01:23:09;;;;;;;6.35;5.12;;;;;;;;;;4206914;34;20102;-56
2021/04/04 01:25:44;;;;;;;6.57;3.92;;;;;;;;;;4206698;34;20458;-57
2021/04/04 01:28:27;;;;;;;1.65;1.52;;;;;;;;;;4219571;34;20106;-55
2021/04/04 01:30:53;;;;;;;2.72;1.85;;;;;;;;;;4219457;34;20288;-57
2021/04/04 01:33:19;;;;;;;4.40;3.08;;;;;;;;;;4206869;34;20421;-55
2021/04/04 01:35:49;;;;;;;2.37;2.00;;;;;;;;;;4206455;34;20117;-54
2021/04/04 01:38:17;;;;;;;4.78;2.55;;;;;;;;;;4206786;34;20112;-56
2021/04/04 01:40:46;;;;;;;3.58;2.62;;;;;;;;;;4219566;34;20494;-57
2021/04/04 01:43:12;;;;;;;5.62;3.37;;;;;;;;;;4206494;34;20144;-56
2021/04/04 01:45:37;;;;;;;8.45;6.40;;;;;;;;;;4195145;34;20462;-57
2021/04/04 01:48:04;;;;;;;7.18;4.18;;;;;;;;;;4202577;34;20105;-56
2021/04/04 01:50:29;;;;;;;1.50;1.40;;;;;;;;;;4206405;34;20109;-55
2021/04/04 01:52:55;;;;;;;2.35;1.52;;;;;;;;;;4194948;34;20521;-56
2021/04/04 01:55:22;;;;;;;3.22;2.20;;;;;;;;;;4206402;34;20105;-56
2021/04/04 01:57:48;;;;;;;6.55;2.47;;;;;;;;;;4219284;34;20673;-55
2021/04/04 02:00:16;;;;;;;3.90;2.78;;;;;;;;;;4206284;33;20109;-58
2021/04/04 02:02:43;;;;;;;1.98;1.55;;;;;;;;;;4219352;34;20100;-58
2021/04/04 02:05:09;;;;;;;2.03;1.75;;;;;;;;;;4206001;33;20213;-57
2021/04/04 02:07:38;;;;;;;1.60;1.50;;;;;;;;;;4194857;34;20141;-57
2021/04/04 02:10:10;;;;;;;1.45;1.33;;;;;;;;;;4206611;34;20200;-59
2021/04/04 02:12:36;;;;;;;2.83;2.45;;;;;;;;;;4219188;34;20109;-57
2021/04/04 02:15:05;;;;;;;2.53;1.98;;;;;;;;;;4206271;34;20245;-58
2021/04/04 02:17:32;;;;;;;3.20;2.28;;;;;;;;;;4219109;34;20498;-60
2021/04/04 02:19:58;;;;;;;8.10;3.83;;;;;;;;;;4205722;34;20119;-60
2021/04/04 02:22:24;;;;;;;4.43;3.20;;;;;;;;;;4219321;34;20148;-58
2021/04/04 02:24:50;;;;;;;5.25;3.20;;;;;;;;;;4194677;34;20186;-58
2021/04/04 02:27:16;;;;;;;3.22;2.45;;;;;;;;;;4206593;34;20568;-58
2021/04/04 02:29:42;;;;;;;3.45;2.67;;;;;;;;;;4219109;34;20153;-57
2021/04/04 02:32:08;;;;;;;4.62;3.92;;;;;;;;;;4218984;34;20109;-56
2021/04/04 02:34:38;;;;;;;3.62;2.70;;;;;;;;;;4206247;34;20117;-58
2021/04/04 02:37:04;;;;;;;2.40;2.05;;;;;;;;;;4212409;34;20191;-58
2021/04/04 02:39:35;;;;;;;0.98;0.98;;;;;;;;;;4206285;34;20109;-58
2021/04/04 02:42:01;;;;;;;1.98;1.73;;;;;;;;;;4194880;34;20224;-58
2021/04/04 02:44:28;;;;;;;5.70;4.32;;;;;;;;;;4206020;34;20118;-60
2021/04/04 02:46:56;;;;;;;3.58;2.80;;;;;;;;;;4205842;34;20137;-56
2021/04/04 02:49:22;;;;;;;5.55;4.07;;;;;;;;;;4206273;34;20178;-56
2021/04/04 02:51:51;;;;;;;1.02;1.00;;;;;;;;;;4194513;34;20547;-57
2021/04/04 02:54:20;;;;;;;2.65;1.55;;;;;;;;;;4218949;34;20117;-54
2021/04/04 02:56:48;;;;;;;4.40;3.55;;;;;;;;;;4218990;34;20527;-57
2021/04/04 02:59:29;;;;;;;2.35;2.05;;;;;;;;;;4218766;34;20096;-57
2021/04/04 03:01:56;;;;;;;2.65;2.28;;;;;;;;;;4194420;34;20113;-57
2021/04/04 03:04:22;;;;;;;2.08;1.67;;;;;;;;;;4218650;34;20094;-56
2021/04/04 03:06:48;;;;;;;3.45;2.92;;;;;;;;;;4218549;34;20233;-56
2021/04/04 03:09:14;;;;;;;4.68;3.65;;;;;;;;;;4194191;34;20176;-57
2021/04/04 03:11:40;;;;;;;2.12;1.85;;;;;;;;;;4194211;34;20117;-58
2021/04/04 03:14:07;;;;;;;4.87;3.87;;;;;;;;;;4194221;34;20145;-57
2021/04/04 03:16:33;;;;;;;3.05;2.70;;;;;;;;;;4218513;34;20109;-58
2021/04/04 03:19:00;;;;;;;4.00;3.15;;;;;;;;;;4205571;34;20197;-56
2021/04/04 03:21:25;;;;;;;1.35;1.25;;;;;;;;;;4194263;34;20144;-57
2021/04/04 03:23:51;;;;;;;2.67;1.95;;;;;;;;;;4205586;34;20554;-56
2021/04/04 03:26:17;;;;;;;1.27;1.20;;;;;;;;;;4205737;34;20117;-57
2021/04/04 03:28:43;;;;;;;1.30;1.20;;;;;;;;;;4194144;34;20107;-58
2021/04/04 03:31:14;;;;;;;4.60;4.05;;;;;;;;;;4204531;34;20109;-58
2021/04/04 03:33:41;;;;;;;4.75;3.85;;;;;;;;;;4195465;34;20133;-58
2021/04/04 03:36:07;;;;;;;1.23;1.12;;;;;;;;;;4205221;34;20144;-57
2021/04/04 03:38:33;;;;;;;1.27;1.20;;;;;;;;;;4194062;34;20485;-58
2021/04/04 03:40:58;;;;;;;1.45;1.33;;;;;;;;;;4193812;34;20152;-59
2021/04/04 03:43:27;;;;;;;1.65;1.52;;;;;;;;;;4194191;34;20404;-58
2021/04/04 03:46:00;;;;;;;3.37;3.08;;;;;;;;;;4218120;34;20121;-60
2021/04/04 03:48:30;;;;;;;1.12;1.02;;;;;;;;;;4218195;34;20112;-57
2021/04/04 03:50:56;;;;;;;1.77;1.42;;;;;;;;;;4205117;34;20560;-56
2021/04/04 03:53:24;;;;;;;1.95;1.77;;;;;;;;;;4205323;34;20189;-57
2021/04/04 03:55:57;;;;;;;2.08;1.87;;;;;;;;;;4193960;34;20110;-57
2021/04/04 03:58:23;;;;;;;2.37;2.12;;;;;;;;;;4194847;34;20096;-57
2021/04/04 04:00:50;;;;;;;1.85;1.37;;;;;;;;;;4205104;34;20104;-57
2021/04/04 04:03:16;;;;;;;1.48;1.25;;;;;;;;;;4205382;34;20148;-56
2021/04/04 04:05:42;;;;;;;2.33;1.83;;;;;;;;;;4217796;34;20544;-57
2021/04/04 04:08:08;;;;;;;0.85;0.85;;;;;;;;;;4193624;34;20469;-57
2021/04/04 04:10:34;;;;;;;3.15;2.35;;;;;;;;;;4193835;34;20184;-56
2021/04/04 04:13:00;;;;;;;1.80;1.67;;;;;;;;;;4193834;34;20526;-57
2021/04/04 04:15:27;;;;;;;3.17;1.73;;;;;;;;;;4217976;34;20193;-56
2021/04/04 04:17:53;;;;;;;2.50;2.30;;;;;;;;;;4205102;34;20227;-56
2021/04/04 04:20:19;;;;;;;3.20;2.80;;;;;;;;;;4218027;34;20207;-57
2021/04/04 04:22:44;;;;;;;3.53;2.30;;;;;;;;;;4204913;34;20110;-57
2021/04/04 04:25:11;;;;;;;2.05;1.87;;;;;;;;;;4193347;34;20213;-58
2021/04/04 04:27:37;;;;;;;4.37;3.42;;;;;;;;;;4204938;34;20117;-58
2021/04/04 04:30:04;;;;;;;1.45;1.35;;;;;;;;;;4193246;34;20113;-58
2021/04/04 04:32:30;;;;;;;1.02;1.02;;;;;;;;;;4217763;34;20229;-58
2021/04/04 04:34:56;;;;;;;1.42;1.33;;;;;;;;;;4204668;34;20133;-61
2021/04/04 04:37:22;;;;;;;4.78;4.03;;;;;;;;;;4205154;34;20121;-58
2021/04/04 04:39:48;;;;;;;4.25;3.95;;;;;;;;;;4204767;34;20102;-59
2021/04/04 04:42:13;;;;;;;4.50;4.10;;;;;;;;;;4205565;34;20194;-59
2021/04/04 04:44:41;;;;;;;5.22;4.00;;;;;;;;;;4220113;34;20438;-58
2021/04/04 04:47:09;;;;;;;3.92;3.55;;;;;;;;;;4219853;34;20127;-59
2021/04/04 04:49:35;;;;;;;4.50;4.10;;;;;;;;;;4195880;34;20113;-58
2021/04/04 04:52:02;;;;;;;5.15;4.65;;;;;;;;;;4210405;34;20233;-61
2021/04/04 04:54:27;;;;;;;4.65;4.25;;;;;;;;;;4206714;34;20201;-59
2021/04/04 04:56:53;;;;;;;5.50;4.37;;;;;;;;;;4219545;34;20227;-59
2021/04/04 04:59:19;;;;;;;2.17;1.80;;;;;;;;;;4206914;34;20144;-59
2021/04/04 05:01:46;;;;;;;3.65;3.03;;;;;;;;;;4206806;34;20192;-58
2021/04/04 05:04:12;;;;;;;2.92;2.30;;;;;;;;;;4219660;34;20126;-58
2021/04/04 05:06:38;;;;;;;5.45;3.67;;;;;;;;;;4208644;34;20153;-57
2021/04/04 05:09:07;;;;;;;2.00;1.70;;;;;;;;;;4199444;34;20228;-60
2021/04/04 05:11:41;;;;;;;2.97;2.62;;;;;;;;;;4206602;34;20221;-59
2021/04/04 05:14:11;;;;;;;2.10;1.93;;;;;;;;;;4219830;34;20103;-58
2021/04/04 05:16:37;;;;;;;2.30;1.87;;;;;;;;;;4219274;34;20126;-58
2021/04/04 05:19:06;;;;;;;1.30;1.20;;;;;;;;;;4206640;34;20158;-59
2021/04/04 05:21:32;;;;;;;3.53;2.90;;;;;;;;;;4206650;34;20532;-57
2021/04/04 05:23:58;;;;;;;3.50;2.75;;;;;;;;;;4206368;34;20196;-58
2021/04/04 05:26:28;;;;;;;5.03;4.57;;;;;;;;;;4219401;34;20129;-57
2021/04/04 05:28:54;;;;;;;5.43;4.93;;;;;;;;;;4219258;34;20193;-57
2021/04/04 05:31:23;;;;;;;5.30;4.80;;;;;;;;;;4194754;34;20181;-57
2021/04/04 05:33:51;;;;;;;4.80;4.32;;;;;;;;;;4206572;34;20104;-53
2021/04/04 05:36:17;;;;;;;4.87;4.47;;;;;;;;;;4206412;34;20118;-55
2021/04/04 05:38:46;;;;;;;5.72;4.95;;;;;;;;;;4219582;34;20125;-57
2021/04/04 05:41:12;;;;;;;5.80;5.30;;;;;;;;;;4206182;34;20105;-59
2021/04/04 05:43:45;;;;;;;5.53;5.03;;;;;;;;;;4206391;34;20143;-58
2021/04/04 05:46:16;;;;;;;5.60;5.10;;;;;;;;;;4219330;34;20092;-57
2021/04/04 05:49:05;;;;;;;6.22;5.25;;;;;;;;;;4206736;34;20208;-58
2021/04/04 05:51:43;;;;;;;5.85;5.35;;;;;;;;;;4219110;34;20116;-59
2021/04/04 05:54:42;;;;;;;5.95;5.35;;;;;;;;;;4218622;34;20113;-60
2021/04/04 05:57:20;;;;;;;5.93;5.43;;;;;;;;;;4219398;34;20117;-59
2021/04/04 05:59:56;;;;;;;6.90;6.20;;;;;;;;;;4206373;34;20102;-59
2021/04/04 06:02:32;;;;;;;6.75;6.12;;;;;;;;;;4195444;34;20567;-58
2021/04/04 06:05:02;;;;;;;;;;;;;;;;;;4206552;34;20113;-58
2021/04/04 06:08:03;;;;;;;7.50;6.20;;;;;;;;;;4206329;34;20380;-58
2021/04/04 06:11:06;;;;;;;6.57;5.87;;;;;;;;;;4206322;34;20128;-58
2021/04/04 06:13:41;;;;;;;5.82;5.32;;;;;;;;;;4219271;34;20129;-59
2021/04/04 06:16:20;;;;;;;5.20;4.70;;;;;;;;;;4205894;34;20123;-57
2021/04/04 06:19:04;;;;;;;6.28;5.68;;;;;;;;;;4206513;34;20251;-61
2021/04/04 06:21:54;;;;;;;5.68;5.10;;;;;;;;;;4218967;34;20121;-58
2021/04/04 06:24:45;;;;;;;5.30;4.80;;;;;;;;;;4219509;34;20093;-58
2021/04/04 06:27:31;;;;;;;6.20;5.60;;;;;;;;;;4218922;34;20122;-58
2021/04/04 06:30:45;;;;;;;5.55;5.05;;;;;;;;;;4218939;34;20613;-58
2021/04/04 06:33:26;;;;;;;5.80;5.22;;;;;;;;;;4211493;34;20525;-58
2021/04/04 06:36:04;;;;;;;6.45;5.85;;;;;;;;;;4218822;34;20208;-57
2021/04/04 06:39:12;;;;;;;5.82;5.22;;;;;;;;;;4218770;34;20128;-57
2021/04/04 06:41:50;;;;;;;5.40;4.90;;;;;;;;;;4218615;34;20117;-58
2021/04/04 06:44:20;;;;;;;5.40;4.90;;;;;;;;;;4218702;34;20093;-59
2021/04/04 06:47:00;;;;;;;5.60;5.10;;;;;;;;;;4218513;34;20509;-58
2021/04/04 06:49:35;;;;;;;5.30;4.80;;;;;;;;;;4206587;34;20121;-59
2021/04/04 06:52:29;;;;;;;5.53;5.03;;;;;;;;;;4205829;34;20598;-58
2021/04/04 06:55:19;;;;;;;5.70;5.15;;;;;;;;;;4206626;34;20106;-59
2021/04/04 06:58:29;;;;;;;8.10;7.30;;;;;;;;;;4195468;34;20110;-59
2021/04/04 07:01:00;;;;;;;7.82;6.62;;;;;;;;;;4163583;34;20486;-60
2021/04/04 07:03:28;;;;;;;7.30;6.60;;;;;;;;;;4174751;34;20553;-59
2021/04/04 07:06:20;;;;;;;6.50;5.90;;;;;;;;;;4186617;34;20129;-60
2021/04/04 07:09:44;;;;;;;5.80;5.30;;;;;;;;;;4218462;34;20102;-61
2021/04/04 07:12:47;;;;;;;6.28;5.28;;;;;;;;;;4168069;34;20110;-58
2021/04/04 07:15:31;;;;;;;5.72;5.22;;;;;;;;;;4152389;34;20110;-58
2021/04/04 07:18:28;;;;;;;5.87;5.28;;;;;;;;;;4213390;33;20113;-58
2021/04/04 07:21:05;;;;;;;6.05;5.45;;;;;;;;;;4218136;34;20133;-59
2021/04/04 07:24:07;;;;;;;6.65;6.05;;;;;;;;;;4218414;34;20205;-60
2021/04/04 07:26:36;;;;;;;4.80;3.87;;;;;;;;;;4195359;34;20117;-59
2021/04/04 07:29:30;;;;;;;5.87;4.90;;;;;;;;;;4218223;34;20128;-58
2021/04/04 07:32:11;;;;;;;5.72;5.22;;;;;;;;;;4218256;34;20121;-59
2021/04/04 07:35:18;;;;;;;5.50;5.00;;;;;;;;;;4218270;34;20446;-58
2021/04/04 07:37:47;;;;;;;5.80;5.20;;;;;;;;;;4217937;34;20105;-59
2021/04/04 07:40:27;;;;;;;6.10;5.50;;;;;;;;;;4218083;34;20115;-59
2021/04/04 07:43:06;;;;;;;3.90;3.45;;;;;;;;;;4218109;34;20188;-62
2021/04/04 07:45:43;;;;;;;4.30;3.55;;;;;;;;;;4194015;34;20481;-62
2021/04/04 07:48:16;;;;;;;7.65;3.30;;;;;;;;;;4194613;34;20109;-60
2021/04/04 07:51:09;;;;;;;22.37;7.82;;;;;;;;;;4205270;34;20137;-61
2021/04/04 07:54:22;;;;;;;17.33;8.38;;;;;;;;;;4216459;33;20106;-59
2021/04/04 07:57:08;;;;;;;49.05;22.85;;;;;;;;;;4216353;33;20220;-61
2021/04/04 07:59:47;;;;;;;6.53;4.87;;;;;;;;;;4218309;34;20105;-58
2021/04/04 08:02:21;;;;;;;18.27;9.07;;;;;;;;;;4217789;34;20124;-62
2021/04/04 08:04:50;;;;;;;6.45;4.40;;;;;;;;;;4205027;34;20136;-60
2021/04/04 08:07:21;;;;;;;19.60;6.20;;;;;;;;;;4217565;34;20557;-59
2021/04/04 08:10:35;;;;;;;5.55;3.35;;;;;;;;;;4205200;34;20114;-60
2021/04/04 08:13:16;;;;;;;5.55;3.37;;;;;;;;;;4139556;34;20117;-60
2021/04/04 08:16:05;;;;;;;4.25;3.47;;;;;;;;;;4124758;34;20183;-60
2021/04/04 08:18:31;;;;;;;4.97;3.17;;;;;;;;;;4188441;34;20469;-61
2021/04/04 08:21:24;;;;;;;3.25;2.87;;;;;;;;;;4219696;34;20133;-60
2021/04/04 08:24:22;;;;;;;7.47;3.47;;;;;;;;;;4187790;34;20133;-59
2021/04/04 08:26:51;;;;;;;6.03;3.10;;;;;;;;;;4198842;34;20112;-59
2021/04/04 08:29:22;;;;;;;5.00;3.00;;;;;;;;;;4206972;34;20106;-59
2021/04/04 08:32:18;;;;;;;5.82;3.72;;;;;;;;;;4207165;34;20273;-60
2021/04/04 08:34:49;;;;;;;4.43;2.70;;;;;;;;;;4208161;34;20122;-60
2021/04/04 08:37:23;;;;;;;2.90;2.50;;;;;;;;;;4207198;34;20113;-59
2021/04/04 08:39:57;;;;;;;4.03;3.55;;;;;;;;;;4207028;34;20116;-60
2021/04/04 08:42:23;;;;;;;3.90;3.50;;;;;;;;;;4196044;34;20189;-60
2021/04/04 08:44:52;;;;;;;4.07;3.75;;;;;;;;;;4219947;34;20461;-60
2021/04/04 08:47:23;;;;;;;4.43;4.00;;;;;;;;;;4195334;34;20159;-58
2021/04/04 08:49:50;;;;;;;4.10;3.70;;;;;;;;;;4195994;34;20140;-59
2021/04/04 08:52:20;;;;;;;3.92;3.17;;;;;;;;;;4206995;34;20180;-59
2021/04/04 08:54:50;;;;;;;3.30;3.00;;;;;;;;;;4206930;34;20608;-58
2021/04/04 08:57:22;;;;;;;3.67;3.30;;;;;;;;;;4195443;34;20106;-59
2021/04/04 08:59:50;;;;;;;4.28;3.22;;;;;;;;;;4219864;34;20201;-60
2021/04/04 09:02:16;;;;;;;3.40;3.10;;;;;;;;;;4219823;34;20454;-60
2021/04/04 09:04:42;;;;;;;3.10;2.80;;;;;;;;;;4220057;34;20154;-59
2021/04/04 09:07:08;;;;;;;5.12;2.78;;;;;;;;;;4219655;34;20145;-59
2021/04/04 09:09:46;;;;;;;3.08;2.50;;;;;;;;;;4206906;34;20117;-60
2021/04/04 09:12:12;;;;;;;4.07;2.60;;;;;;;;;;4196375;34;20121;-60
2021/04/04 09:14:39;;;;;;;2.58;2.37;;;;;;;;;;4195440;34;20116;-60
2021/04/04 09:17:10;;;;;;;2.42;2.22;;;;;;;;;;4219434;34;20132;-61
2021/04/04 09:19:37;;;;;;;2.78;2.45;;;;;;;;;;4219585;34;20175;-59
2021/04/04 09:22:15;;;;;;;2.53;2.33;;;;;;;;;;4219628;34;20145;-61
2021/04/04 09:24:52;;;;;;;2.65;2.45;;;;;;;;;;4207479;34;20097;-60
2021/04/04 09:27:19;;;;;;;3.60;2.10;;;;;;;;;;4195663;34;20113;-60
2021/04/04 09:29:46;;;;;;;2.50;2.30;;;;;;;;;;4206195;34;20687;-62
2021/04/04 09:32:26;;;;;;;2.50;2.30;;;;;;;;;;4206550;34;20108;-59
2021/04/04 09:34:52;;;;;;;2.62;2.42;;;;;;;;;;4195645;34;20097;-60
2021/04/04 09:37:23;;;;;;;2.53;2.22;;;;;;;;;;4194956;34;20105;-60
2021/04/04 09:39:49;;;;;;;3.50;2.30;;;;;;;;;;4195188;34;20501;-61
2021/04/04 09:42:15;;;;;;;2.70;2.50;;;;;;;;;;4219331;34;20116;-57
2021/04/04 09:44:41;;;;;;;2.40;2.20;;;;;;;;;;4219631;34;20212;-59
2021/04/04 09:47:07;;;;;;;2.30;2.10;;;;;;;;;;4219434;34;20132;-59
2021/04/04 09:49:42;;;;;;;2.37;1.90;;;;;;;;;;4219446;34;20131;-59
2021/04/04 09:52:27;;;;;;;3.05;2.42;;;;;;;;;;4219603;34;20189;-57
2021/04/04 09:55:10;;;;;;;2.17;1.98;;;;;;;;;;4219222;34;20225;-58
2021/04/04 09:57:59;;;;;;;1.60;1.50;;;;;;;;;;4206692;34;20109;-58
2021/04/04 10:00:37;;;;;;;2.20;2.00;;;;;;;;;;4218991;34;20617;-56
2021/04/04 10:03:14;;;;;;;3.12;1.62;;;;;;;;;;4219282;34;20524;-60
2021/04/04 10:05:44;;;;;;;1.95;1.70;;;;;;;;;;4219216;34;20121;-55
2021/04/04 10:08:15;;;;;;;2.05;1.80;;;;;;;;;;4219332;34;20104;-61
2021/04/04 10:10:45;;;;;;;3.50;1.70;;;;;;;;;;4219279;34;20106;-62
2021/04/04 10:13:11;;;;;;;1.65;1.55;;;;;;;;;;4219111;34;20528;-60
2021/04/04 10:15:44;;;;;;;2.42;1.70;;;;;;;;;;4206350;34;20515;-60
2021/04/04 10:18:10;;;;;;;1.70;1.60;;;;;;;;;;4219072;34;20201;-59
2021/04/04 10:20:38;;;;;;;2.17;1.98;;;;;;;;;;4218987;34;20199;-60
2021/04/04 10:23:05;;;;;;;3.60;2.10;;;;;;;;;;4219247;34;20109;-60
2021/04/04 10:25:31;;;;;;;3.05;1.80;;;;;;;;;;4218984;34;20450;-59
2021/04/04 10:28:05;;;;;;;1.98;1.80;;;;;;;;;;4206361;34;20105;-59
2021/04/04 10:30:31;;;;;;;1.60;1.50;;;;;;;;;;4219186;34;20146;-59
2021/04/04 10:33:20;;;;;;;3.20;1.98;;;;;;;;;;4219146;34;20121;-58
2021/04/04 10:35:46;;;;;;;1.87;1.77;;;;;;;;;;4219047;34;20579;-56
2021/04/04 10:38:14;;;;;;;2.50;2.08;;;;;;;;;;4218843;34;20536;-53
2021/04/04 10:40:52;;;;;;;2.42;1.98;;;;;;;;;;4218429;34;20109;-57
2021/04/04 10:43:39;;;;;;;2.42;1.98;;;;;;;;;;4218973;34;20128;-58
2021/04/04 10:46:12;;;;;;;3.28;1.90;;;;;;;;;;4218509;34;20513;-57
2021/04/04 10:48:40;;;;;;;2.03;1.90;;;;;;;;;;4218792;34;20114;-57
2021/04/04 10:51:06;;;;;;;2.20;2.00;;;;;;;;;;4218687;34;20137;-57
2021/04/04 10:53:36;;;;;;;2.87;1.95;;;;;;;;;;4218755;34;20216;-58
2021/04/04 10:56:03;;;;;;;1.75;1.65;;;;;;;;;;4205775;34;20141;-60
2021/04/04 10:58:29;;;;;;;2.87;2.20;;;;;;;;;;4218673;34;20199;-56
2021/04/04 11:01:00;;;;;;;2.00;1.90;;;;;;;;;;4218611;34;20577;-56
2021/04/04 11:03:26;;;;;;;4.20;2.08;;;;;;;;;;4218790;34;20519;-57
2021/04/04 11:05:52;;;;;;;2.70;2.30;;;;;;;;;;4218333;34;20113;-58
2021/04/04 11:08:19;;;;;;;2.35;2.12;;;;;;;;;;4218740;34;20210;-58
2021/04/04 11:10:45;;;;;;;3.08;2.53;;;;;;;;;;4205688;34;20487;-58
2021/04/04 11:13:18;;;;;;;3.15;2.40;;;;;;;;;;4206004;34;20204;-58
2021/04/04 11:15:58;;;;;;;4.55;2.50;;;;;;;;;;4218694;34;20137;-57
2021/04/04 11:18:28;;;;;;;2.97;2.53;;;;;;;;;;4218560;34;20554;-58
2021/04/04 11:20:55;;;;;;;3.92;2.08;;;;;;;;;;4218508;34;20216;-58
2021/04/04 11:23:21;;;;;;;2.15;1.75;;;;;;;;;;4205632;34;20212;-58
2021/04/04 11:25:47;;;;;;;3.05;2.03;;;;;;;;;;4205641;34;20097;-57
2021/04/04 11:28:17;;;;;;;2.58;2.12;;;;;;;;;;4205599;34;20211;-57
2021/04/04 11:30:44;;;;;;;2.97;1.80;;;;;;;;;;4218431;34;20105;-57
2021/04/04 11:33:18;;;;;;;4.93;2.08;;;;;;;;;;4218438;34;20112;-58
2021/04/04 11:36:04;;;;;;;4.28;2.25;;;;;;;;;;4218271;34;20136;-60
2021/04/04 11:38:49;;;;;;;3.08;1.80;;;;;;;;;;4218325;34;20097;-57
2021/04/04 11:41:20;;;;;;;3.20;1.83;;;;;;;;;;4218255;34;20123;-56
2021/04/04 11:44:06;;;;;;;2.22;1.80;;;;;;;;;;4218338;34;20181;-58
2021/04/04 11:46:43;;;;;;;2.92;2.08;;;;;;;;;;4207313;34;20114;-57
2021/04/04 11:49:28;;;;;;;2.00;1.80;;;;;;;;;;4218234;34;20553;-58
2021/04/04 11:51:54;;;;;;;2.17;1.75;;;;;;;;;;4218963;34;20213;-58
2021/04/04 11:54:45;;;;;;;2.60;1.90;;;;;;;;;;4220319;34;20106;-56
2021/04/04 11:57:33;;;;;;;1.60;1.50;;;;;;;;;;4220245;34;20113;-58
2021/04/04 12:00:16;;;;;;;2.67;2.00;;;;;;;;;;4207658;34;20529;-57
2021/04/04 12:02:51;;;;;;;2.15;1.95;;;;;;;;;;4220562;34;20605;-58
2021/04/04 12:05:18;;;;;;;3.72;1.95;;;;;;;;;;4220008;34;20508;-57
2021/04/04 12:07:50;;;;;;;1.75;1.40;;;;;;;;;;4220468;34;20117;-58
2021/04/04 12:10:18;;;;;;;1.50;1.40;;;;;;;;;;4220414;34;20136;-58
2021/04/04 12:12:44;;;;;;;1.70;1.60;;;;;;;;;;4220205;34;20208;-57
2021/04/04 12:15:14;;;;;;;1.60;1.40;;;;;;;;;;4220200;34;20209;-57
2021/04/04 12:17:45;;;;;;;2.67;1.48;;;;;;;;;;4220149;34;20181;-57
2021/04/04 12:20:11;;;;;;;2.00;1.80;;;;;;;;;;4220097;34;20144;-58
2021/04/04 12:22:42;;;;;;;2.03;1.67;;;;;;;;;;4220262;34;20457;-58
2021/04/04 12:25:14;;;;;;;1.70;1.60;;;;;;;;;;4219969;34;20118;-57
2021/04/04 12:27:42;;;;;;;2.20;1.60;;;;;;;;;;4220118;34;20102;-57
2021/04/04 12:30:14;;;;;;;4.62;1.98;;;;;;;;;;4207052;34;20568;-56
2021/04/04 12:32:40;;;;;;;2.20;1.80;;;;;;;;;;4220020;34;20204;-57
2021/04/04 12:35:07;;;;;;;2.90;1.90;;;;;;;;;;4219711;34;20132;-57
2021/04/04 12:37:38;;;;;;;3.12;2.03;;;;;;;;;;4220283;34;20204;-57
2021/04/04 12:40:06;;;;;;;3.17;2.33;;;;;;;;;;4219938;34;20710;-58
2021/04/04 12:42:34;;;;;;;7.65;2.08;;;;;;;;;;4207365;34;20137;-58
2021/04/04 12:45:08;;;;;;;5.12;2.10;;;;;;;;;;4219894;34;20196;-57
2021/04/04 12:47:34;;;;;;;4.60;1.75;;;;;;;;;;4219917;34;20200;-57
2021/04/04 12:50:05;;;;;;;3.00;1.83;;;;;;;;;;4219699;34;20094;-58
2021/04/04 12:52:41;;;;;;;1.50;1.40;;;;;;;;;;4220092;34;20117;-58
2021/04/04 12:55:09;;;;;;;2.17;1.52;;;;;;;;;;4219567;34;20135;-57
2021/04/04 12:57:35;;;;;;;1.70;1.60;;;;;;;;;;4219783;34;20521;-57
2021/04/04 13:00:01;;;;;;;2.00;1.73;;;;;;;;;;4207001;34;20113;-58
2021/04/04 13:02:27;;;;;;;1.55;1.42;;;;;;;;;;4219702;34;20128;-57
2021/04/04 13:04:57;;;;;;;2.17;1.48;;;;;;;;;;4219927;34;20117;-57
2021/04/04 13:07:22;;;;;;;1.50;1.40;;;;;;;;;;4219551;34;20124;-57
2021/04/04 13:09:48;;;;;;;2.50;1.62;;;;;;;;;;4206772;34;20132;-57
2021/04/04 13:12:16;;;;;;;1.83;1.35;;;;;;;;;;4219867;34;20461;-57
2021/04/04 13:14:42;;;;;;;2.20;1.45;;;;;;;;;;4195206;34;20129;-58
2021/04/04 13:17:08;;;;;;;1.77;1.50;;;;;;;;;;4219559;34;20125;-56
2021/04/04 13:19:40;;;;;;;2.22;1.55;;;;;;;;;;4219638;34;20109;-56
2021/04/04 13:22:08;;;;;;;2.03;1.60;;;;;;;;;;4195193;34;20125;-56
2021/04/04 13:24:34;;;;;;;1.60;1.48;;;;;;;;;;4219504;34;20149;-56
2021/04/04 13:27:00;;;;;;;2.33;1.67;;;;;;;;;;4206620;34;20106;-57
2021/04/04 13:29:37;;;;;;;3.03;1.85;;;;;;;;;;4206820;34;20132;-56
2021/04/04 13:32:04;;;;;;;1.90;1.50;;;;;;;;;;4206589;34;20532;-56
2021/04/04 13:34:40;;;;;;;2.72;2.05;;;;;;;;;;4219760;34;20450;-57
2021/04/04 13:37:05;;;;;;;2.92;2.10;;;;;;;;;;4219412;34;20129;-57
2021/04/04 13:39:36;;;;;;;11.07;2.33;;;;;;;;;;4219364;34;20133;-56
2021/04/04 13:42:03;;;;;;;3.60;2.20;;;;;;;;;;4219601;34;20465;-57
2021/04/04 13:44:29;;;;;;;7.20;2.40;;;;;;;;;;4219757;34;20457;-56
2021/04/04 13:46:59;;;;;;;4.45;2.80;;;;;;;;;;4219219;34;20235;-57
2021/04/04 13:49:35;;;;;;;4.20;3.00;;;;;;;;;;4219288;34;20113;-57
2021/04/04 13:52:23;;;;;;;6.18;3.75;;;;;;;;;;4219206;34;20207;-56
2021/04/04 13:54:51;;;;;;;5.53;2.67;;;;;;;;;;4219129;34;20129;-57
2021/04/04 13:57:33;;;;;;;4.30;3.20;;;;;;;;;;4219189;34;20109;-55
2021/04/04 14:00:00;;;;;;;4.07;2.85;;;;;;;;;;4219343;34;20137;-57
2021/04/04 14:02:25;;;;;;;3.05;2.47;;;;;;;;;;4219309;34;20132;-57
2021/04/04 14:04:51;;;;;;;8.70;2.65;;;;;;;;;;4206282;34;20130;-57
2021/04/04 14:07:18;;;;;;;4.72;2.50;;;;;;;;;;4218794;34;20216;-57
2021/04/04 14:09:48;;;;;;;3.70;2.92;;;;;;;;;;4219416;34;20449;-57
2021/04/04 14:12:18;;;;;;;4.07;2.40;;;;;;;;;;4219142;34;20619;-58
2021/04/04 14:14:47;;;;;;;3.42;2.33;;;;;;;;;;4205501;34;20209;-57
2021/04/04 14:17:14;;;;;;;5.43;3.28;;;;;;;;;;4219055;34;20116;-57
2021/04/04 14:19:43;;;;;;;3.37;2.22;;;;;;;;;;4218929;34;20133;-57
2021/04/04 14:22:09;;;;;;;2.83;2.30;;;;;;;;;;4218920;34;20129;-56
2021/04/04 14:24:36;;;;;;;2.62;2.22;;;;;;;;;;4219126;34;20275;-55
2021/04/04 14:27:08;;;;;;;4.70;2.42;;;;;;;;;;4219027;34;20185;-56
2021/04/04 14:29:37;;;;;;;6.18;3.20;;;;;;;;;;4218830;34;20124;-57
2021/04/04 14:32:06;;;;;;;3.45;2.05;;;;;;;;;;4218815;34;20129;-58
2021/04/04 14:34:33;;;;;;;4.72;2.20;;;;;;;;;;4218796;34;20094;-56
2021/04/04 14:36:59;;;;;;;3.45;2.40;;;;;;;;;;4218891;34;20465;-57
2021/04/04 14:39:25;;;;;;;4.50;2.22;;;;;;;;;;4218763;34;20112;-56
2021/04/04 14:41:52;;;;;;;2.75;1.77;;;;;;;;;;4218741;34;20105;-56
2021/04/04 14:46:44;;;;;;;2.80;2.12;;;;;;;;;;4205914;34;20466;-56
2021/04/04 14:49:10;;;;;;;3.37;2.03;;;;;;;;;;4205839;34;20470;-56
2021/04/04 14:51:36;;;;;;;3.65;2.00;;;;;;;;;;4218800;34;20474;-58
2021/04/04 14:54:02;;;;;;;2.17;1.85;;;;;;;;;;4218673;34;20105;-57
2021/04/04 14:56:28;;;;;;;3.05;2.10;;;;;;;;;;4218687;34;20556;-57
2021/04/04 14:58:54;;;;;;;3.97;1.77;;;;;;;;;;4218888;34;20327;-56
2021/04/04 15:01:21;;;;;;;5.40;2.30;;;;;;;;;;4218786;34;20125;-57
2021/04/04 15:03:47;;;;;;;2.95;1.92;;;;;;;;;;4218676;34;20145;-58
2021/04/04 15:06:13;;;;;;;3.85;2.12;;;;;;;;;;4218265;34;20135;-58
2021/04/04 15:08:39;;;;;;;2.60;1.90;;;;;;;;;;4205835;34;20529;-58
2021/04/04 15:11:05;;;;;;;2.53;1.80;;;;;;;;;;4194072;34;20115;-58
2021/04/04 15:13:31;;;;;;;8.13;2.53;;;;;;;;;;4218738;34;20105;-59
2021/04/04 15:15:57;;;;;;;2.70;1.90;;;;;;;;;;4218445;34;20128;-58
2021/04/04 15:18:23;;;;;;;4.43;2.55;;;;;;;;;;4218817;34;20113;-58